createdAt,value
2023-03-22T00:07:58.861Z,14.08
2023-03-22T00:23:01.683Z,13.15
2023-03-22T00:38:06.256Z,14.04
2023-03-22T00:53:09.060Z,12.56
2023-03-22T01:08:14.920Z,13.60
2023-03-22T01:23:17.536Z,12.75
2023-03-22T01:38:20.531Z,14.73
2023-03-22T01:53:26.041Z,13.62
2023-03-22T02:08:30.645Z,15.01
2023-03-22T02:23:52.042Z,13.64
2023-03-22T02:39:12.897Z,14.39
2023-03-22T02:54:23.762Z,12.77
2023-03-22T03:09:26.485Z,14.54
2023-03-22T03:24:47.908Z,13.41
2023-03-22T03:40:12.939Z,14.81
2023-03-22T03:55:16.109Z,13.52
2023-03-22T04:10:18.939Z,15.02
2023-03-22T04:25:23.021Z,14.14
2023-03-22T04:40:28.503Z,11.93
2023-03-22T04:55:31.216Z,14.43
2023-03-22T05:10:33.770Z,13.93
2023-03-22T05:25:38.383Z,13.68
2023-03-22T05:40:41.419Z,15.34
2023-03-22T05:55:45.577Z,13.51
2023-03-22T06:10:50.628Z,15.17
2023-03-22T06:25:53.459Z,13.72
2023-03-22T06:40:56.413Z,14.34
2023-03-22T06:55:59.125Z,16.01
2023-03-22T07:11:01.695Z,16.87
2023-03-22T07:26:04.894Z,18.55
2023-03-22T07:41:07.595Z,19.20
2023-03-22T07:56:10.687Z,19.22
2023-03-22T08:11:13.609Z,20.28
2023-03-22T08:26:16.601Z,21.84
2023-03-22T08:41:19.346Z,22.53
2023-03-22T08:56:22.735Z,22.81
2023-03-22T09:11:25.501Z,23.24
2023-03-22T09:26:28.169Z,24.22
2023-03-22T09:41:53.137Z,25.62
2023-03-22T09:57:05.388Z,26.58
2023-03-22T10:12:24.267Z,25.78
2023-03-22T10:27:29.585Z,24.53
2023-03-22T10:42:36.549Z,24.01
2023-03-22T10:57:41.004Z,23.37
2023-03-22T11:12:49.378Z,23.02
2023-03-22T11:28:06.204Z,23.00
2023-03-22T11:43:20.694Z,22.84
2023-03-22T11:58:27.118Z,22.65
2023-03-22T12:13:56.215Z,22.20
2023-03-22T12:29:04.833Z,22.02
2023-03-22T12:44:22.705Z,21.94
2023-03-22T12:59:30.412Z,21.67
2023-03-22T13:15:00.918Z,21.40
2023-03-22T13:30:14.607Z,20.81
2023-03-22T13:46:02.809Z,20.63
2023-03-22T14:01:14.549Z,20.62
2023-03-22T14:16:29.092Z,20.78
